Forrest Airport

YFRT · 澳大利亚

TAF YFRT · Forrest Airport

16 七月 20:43 LT
2h
2024年7月16日 22:002024年7月17日 10:00有效
时间
星期二
22:00
星期二
23:00
星期三
00:00
星期三
01:00
星期三
02:00
星期三
03:00
星期三
04:00
30%
星期三
05:00
30%
星期三
06:00
30%
星期三
07:00
30%
星期三
08:00
星期三
09:00
代码
VFR
VFR
VFR
VFR
VFR
VFR
LIFR
LIFR
LIFR
LIFR
VFR
VFR
天气
疏云,零星散落的云朵
疏云,零星散落的云朵
疏云,零星散落的云朵
疏云,零星散落的云朵
疏云,零星散落的云朵
疏云,零星散落的云朵
多雾路段
多雾路段
多雾路段
多雾路段
疏云,零星散落的云朵
疏云,零星散落的云朵
能见度
10 km+
10 km+
10 km+
10 km+
10 km+
10 km+
300 m
300 m
300 m
300 m
10 km+
10 km+
天花板
-
-
-
-
-
-
-
-
-
-
-
-
180°
180°
180°
180°
180°
180°
180°
180°
180°
180°
180°
180°
Var
Var
Var
Var
Var
Var
Var
Var
Var
Var
Var
Var
速度
8 kt
8 kt
8 kt
8 kt
8 kt
8 kt
3 kt
3 kt
3 kt
3 kt
3 kt
3 kt
阵风
温度/星期日

原版的

TAF YFRT 161243Z 1614/1702 18008KT 9999 SCT035
FM162000 VRB03KT 9999 SCT010
PROB30 1620/1700 0300 FG

TAF Forrest Airport

该字段位于澳大利亚中。 该机场位于纬度-30,83823和经度128,11500。 该机场有2条跑道: 18/36 和 9/27. 本场的ICAO机场代码为YFRT。 该机场的IATA代码为FOS。 机场在Melbourne FIR中。

该航空气象观测是针对Forrest Airport在2024年7月16日 20:43, 当地时间进行的。 从2024年7月16日 22:00到2024年7月17日 10:00, 当地时间有效.

预报

  • 在星期二 22:00和星期三 10:00之间

    • 风: 风来自180°方向,速度为8 kt。
    • 能见度: 10 km 或者更多
    • 乌云: 疏云,零星散落的云朵在3.500 ft的高度.
  • 从星期三 04:00开始

    • 风: 可变方向的风很小或没有。
    • 能见度: 10 km 或者更多
    • 乌云: 疏云,零星散落的云朵在1.000 ft的高度.
  • 在星期三 04:00和08:00之间 ({一个机会)

    • 能见度: 300 m
    • 天气: 多雾路段

白天

今天,太阳从06:23升起,在16:44降落。 这适用于Forrest Airport,世界夏令时可能有所不同。 当地时间与世界标准时间之间的时差为+8 小时。 夏令时目前正在进行中。

报告变更